Time;durP1;ratioP1;P1;durP2;ratioP2;P2;SDS_P1;SDS_P2;PMS_P1;PMS_P2;Temp;Humidity;BMP_temperature;BMP_pressure;BME280_temperature;BME280_humidity;BME280_pressure;Samples;Min_cycle;Max_cycle;Signal;HPM_P1;HPM_P2
2021/05/10 00:00:23;;;;;;;25.20;11.28;;;;;;;5.62;67.11;99440.70;1748450;82;21316;-55
2021/05/10 00:02:52;;;;;;;26.90;12.37;;;;;;;5.58;67.66;99433.20;1748437;82;21320;-56
2021/05/10 00:05:22;;;;;;;22.75;10.68;;;;;;;5.56;68.44;99437.78;1748431;82;21198;-55
2021/05/10 00:07:51;;;;;;;20.12;10.43;;;;;;;5.55;69.16;99444.46;1748736;82;21618;-56
2021/05/10 00:10:21;;;;;;;20.75;9.65;;;;;;;5.54;69.77;99440.21;1748615;82;21202;-54
2021/05/10 00:12:51;;;;;;;19.42;9.83;;;;;;;5.53;70.31;99439.40;1748633;82;21174;-55
2021/05/10 00:15:22;;;;;;;23.12;10.80;;;;;;;5.56;70.72;99439.55;1748883;82;21562;-55
2021/05/10 00:18:01;;;;;;;21.52;10.40;;;;;;;5.57;70.98;99441.22;1748835;82;21154;-56
2021/05/10 00:20:24;;;;;;;20.40;9.20;;;;;;;5.58;71.30;99444.16;1748183;82;21304;-55
2021/05/10 00:22:54;;;;;;;17.55;8.98;;;;;;;5.59;71.53;99450.52;1748757;82;21577;-55
2021/05/10 00:25:25;;;;;;;19.12;9.48;;;;;;;5.61;72.29;99438.58;1748582;82;21193;-55
2021/05/10 00:27:55;;;;;;;19.17;9.20;;;;;;;5.64;72.34;99433.53;1748562;82;21598;-55
2021/05/10 00:30:25;;;;;;;17.27;7.83;;;;;;;5.65;72.05;99441.21;1748336;82;21209;-54
2021/05/10 00:32:56;;;;;;;18.35;8.35;;;;;;;5.65;71.54;99436.48;1748680;82;21158;-53
2021/05/10 00:35:25;;;;;;;17.17;8.65;;;;;;;5.66;70.85;99439.41;1748348;81;21177;-54
2021/05/10 00:37:55;;;;;;;12.65;6.70;;;;;;;5.66;70.51;99438.11;1748627;82;21198;-54
2021/05/10 00:40:26;;;;;;;13.18;7.10;;;;;;;5.63;69.71;99440.56;1748697;82;21617;-55
2021/05/10 00:42:55;;;;;;;15.35;7.30;;;;;;;5.62;69.03;99441.55;1748800;82;21570;-56
2021/05/10 00:45:26;;;;;;;14.43;7.42;;;;;;;5.61;68.79;99435.97;1748601;82;21303;-53
2021/05/10 00:47:56;;;;;;;12.70;6.75;;;;;;;5.58;69.05;99429.27;1748507;82;21316;-56
2021/05/10 00:50:26;;;;;;;15.25;6.92;;;;;;;5.57;68.70;99435.49;1748286;82;21193;-55
2021/05/10 00:52:55;;;;;;;14.00;7.20;;;;;;;5.58;68.44;99430.58;1748313;82;21186;-55
2021/05/10 00:55:25;;;;;;;14.50;7.33;;;;;;;5.57;68.15;99430.27;1748296;82;21202;-55
2021/05/10 00:58:02;;;;;;;15.32;7.45;;;;;;;5.57;68.20;99431.57;1748713;82;21676;-56
2021/05/10 01:00:36;;;;;;;14.65;7.40;;;;;;;5.54;68.22;99434.49;1748429;82;21637;-56
2021/05/10 01:03:06;;;;;;;12.98;7.30;;;;;;;5.50;68.40;99434.48;1748344;82;21123;-56
2021/05/10 01:05:36;;;;;;;14.30;7.62;;;;;;;5.50;68.26;99421.89;1748403;82;21127;-54
2021/05/10 01:08:06;;;;;;;15.13;7.45;;;;;;;5.48;68.63;99428.59;1748660;82;21182;-55
2021/05/10 01:10:36;;;;;;;14.15;6.95;;;;;;;5.45;68.84;99423.70;1748563;82;21554;-55
2021/05/10 01:13:05;;;;;;;14.45;7.30;;;;;;;5.44;69.02;99432.50;1748683;82;21594;-55
2021/05/10 01:15:34;;;;;;;14.55;6.80;;;;;;;5.44;68.47;99429.08;1748679;82;21609;-55
2021/05/10 01:18:04;;;;;;;12.95;6.83;;;;;;;5.44;68.02;99424.66;1748633;82;21503;-55
2021/05/10 01:20:34;;;;;;;18.35;8.45;;;;;;;5.47;67.77;99422.23;1750290;82;21617;-54
2021/05/10 01:23:05;;;;;;;15.43;8.45;;;;;;;5.46;67.85;99424.52;1756527;82;21141;-55
2021/05/10 01:25:35;;;;;;;16.07;8.43;;;;;;;5.47;67.35;99421.73;1756924;81;21169;-55
2021/05/10 01:28:05;;;;;;;14.53;7.42;;;;;;;5.46;67.20;99420.11;1756794;81;21142;-55
2021/05/10 01:30:38;;;;;;;12.98;7.55;;;;;;;5.46;67.03;99422.72;1756767;82;21589;-55
2021/05/10 01:33:09;;;;;;;14.55;7.83;;;;;;;5.48;66.93;99419.94;1756685;81;21183;-55
2021/05/10 01:35:42;;;;;;;16.70;8.13;;;;;;;5.49;66.75;99418.46;1756185;80;21165;-56
2021/05/10 01:38:11;;;;;;;12.47;7.40;;;;;;;5.49;66.62;99425.49;1756649;82;21170;-55
2021/05/10 01:40:41;;;;;;;13.35;6.70;;;;;;;5.49;66.70;99421.57;1756831;81;21185;-54
2021/05/10 01:43:12;;;;;;;13.68;7.60;;;;;;;5.45;66.69;99421.55;1756799;81;21206;-56
2021/05/10 01:45:42;;;;;;;14.23;7.37;;;;;;;5.46;66.57;99429.75;1757014;81;21162;-57
2021/05/10 01:48:13;;;;;;;14.85;7.00;;;;;;;5.44;66.58;99427.28;1756836;81;21594;-56
2021/05/10 01:50:45;;;;;;;13.53;6.90;;;;;;;5.43;66.54;99428.75;1756741;81;21154;-54
2021/05/10 01:53:14;;;;;;;12.95;6.72;;;;;;;5.42;66.56;99425.32;1756670;81;21165;-57
2021/05/10 01:55:44;;;;;;;12.33;6.90;;;;;;;5.40;66.55;99419.45;1756546;82;21174;-55
2021/05/10 01:58:13;;;;;;;10.65;6.70;;;;;;;5.38;66.56;99418.77;1756476;82;21188;-55
2021/05/10 02:00:46;;;;;;;11.53;6.22;;;;;;;5.36;66.63;99425.97;1756887;82;21173;-54
2021/05/10 02:03:18;;;;;;;13.58;6.87;;;;;;;5.36;66.66;99417.30;1756491;81;21303;-54
2021/05/10 02:05:51;;;;;;;12.07;6.80;;;;;;;5.33;66.82;99423.66;1756795;82;21162;-55
2021/05/10 02:08:20;;;;;;;14.45;7.25;;;;;;;5.29;67.05;99422.36;1756746;81;21203;-55
2021/05/10 02:10:52;;;;;;;15.40;7.15;;;;;;;5.26;67.25;99420.88;1756428;82;21151;-54
2021/05/10 02:13:23;;;;;;;14.58;7.42;;;;;;;5.24;67.44;99422.83;1729966;82;21609;-53
2021/05/10 02:15:57;;;;;;;16.48;7.45;;;;;;;5.22;67.81;99423.98;1756790;82;21182;-55
2021/05/10 02:18:30;;;;;;;16.20;7.47;;;;;;;5.20;68.16;99424.61;1756593;81;21209;-54
2021/05/10 02:20:59;;;;;;;17.10;7.50;;;;;;;5.17;68.26;99420.53;1754576;81;21190;-56
2021/05/10 02:23:33;;;;;;;13.30;7.28;;;;;;;5.15;68.63;99418.55;1748385;82;21174;-54
2021/05/10 02:26:05;;;;;;;17.20;7.60;;;;;;;5.14;69.02;99423.95;1748424;82;21299;-53
2021/05/10 02:28:35;;;;;;;13.95;7.70;;;;;;;5.14;69.18;99413.48;1748613;82;21709;-56
2021/05/10 02:31:05;;;;;;;14.00;7.40;;;;;;;5.16;69.52;99415.44;1748659;82;21170;-54
2021/05/10 02:33:35;;;;;;;13.95;7.47;;;;;;;5.19;69.58;99415.14;1748285;82;21166;-56
2021/05/10 02:36:06;;;;;;;14.33;7.20;;;;;;;5.22;69.63;99420.06;1748433;81;21217;-54
2021/05/10 02:38:35;;;;;;;14.25;7.62;;;;;;;5.25;69.93;99417.93;1748629;82;21547;-57
2021/05/10 02:41:04;;;;;;;17.87;7.97;;;;;;;5.27;70.00;99415.96;1748262;82;21181;-55
2021/05/10 02:43:34;;;;;;;18.57;7.58;;;;;;;5.37;70.15;99413.22;1748430;82;21304;-54
2021/05/10 02:46:04;;;;;;;16.40;8.23;;;;;;;5.58;69.71;99419.31;1748269;82;21221;-53
2021/05/10 02:48:33;;;;;;;16.27;7.95;;;;;;;5.86;69.15;99417.20;1748510;82;21594;-54
2021/05/10 02:51:02;;;;;;;15.08;7.30;;;;;;;6.17;68.20;99418.67;1748164;82;21186;-54
2021/05/10 02:53:32;;;;;;;18.30;7.12;;;;;;;6.53;66.97;99417.78;1748367;82;21166;-57
2021/05/10 02:56:01;;;;;;;17.25;8.08;;;;;;;6.95;65.95;99419.79;1748632;82;21577;-57
2021/05/10 02:58:30;;;;;;;14.35;7.35;;;;;;;7.38;64.79;99426.27;1748455;82;21178;-53
2021/05/10 03:01:00;;;;;;;18.45;7.58;;;;;;;7.81;62.87;99427.47;1748271;82;21170;-53
2021/05/10 03:03:30;;;;;;;12.55;7.37;;;;;;;8.24;61.20;99421.19;1748547;82;21614;-54
2021/05/10 03:05:59;;;;;;;15.23;7.22;;;;;;;8.64;59.54;99429.68;1748352;82;21712;-55
2021/05/10 03:08:29;;;;;;;15.68;6.97;;;;;;;9.05;58.58;99430.83;1748530;82;21210;-55
2021/05/10 03:10:58;;;;;;;12.53;7.28;;;;;;;9.45;57.16;99442.31;1748307;82;21197;-55
2021/05/10 03:13:28;;;;;;;14.07;6.28;;;;;;;9.88;56.37;99441.84;1748641;82;21166;-54
2021/05/10 03:15:58;;;;;;;16.48;6.97;;;;;;;10.37;54.26;99433.14;1748456;82;21131;-56
2021/05/10 03:18:27;;;;;;;12.73;6.28;;;;;;;10.81;53.05;99434.12;1748608;82;21197;-56
2021/05/10 03:20:57;;;;;;;13.10;6.00;;;;;;;11.81;49.80;99441.05;1749023;82;21178;-56
2021/05/10 03:23:27;;;;;;;11.03;5.75;;;;;;;11.81;49.80;99441.05;1754133;82;21173;-53
2021/05/10 03:25:56;;;;;;;11.73;6.03;;;;;;;12.84;46.99;99433.48;1754246;82;21609;-56
2021/05/10 03:28:26;;;;;;;19.45;6.22;;;;;;;13.24;46.29;99427.04;1753953;82;21209;-56
2021/05/10 03:30:55;;;;;;;11.35;5.40;;;;;;;13.24;46.29;99427.04;1753880;82;21197;-56
2021/05/10 03:33:24;;;;;;;11.43;5.45;;;;;;;13.58;44.38;99436.95;1753987;82;21210;-55
2021/05/10 03:35:54;;;;;;;10.82;5.55;;;;;;;13.81;43.55;99441.70;1753835;80;21239;-56
2021/05/10 03:38:23;;;;;;;9.10;5.30;;;;;;;13.99;43.01;99436.98;1754288;82;21173;-55
2021/05/10 03:40:54;;;;;;;11.12;5.37;;;;;;;14.28;42.32;99442.98;1754195;82;21169;-57
2021/05/10 03:43:23;;;;;;;10.45;6.08;;;;;;;14.56;41.55;99444.37;1754227;82;21574;-55
2021/05/10 03:45:53;;;;;;;13.05;6.20;;;;;;;14.70;41.04;99439.25;1754090;82;21328;-55
2021/05/10 03:48:22;;;;;;;11.28;6.00;;;;;;;15.02;41.05;99442.55;1754058;82;21166;-55
2021/05/10 03:50:51;;;;;;;12.80;6.20;;;;;;;15.60;40.36;99450.01;1754016;82;21339;-57
2021/05/10 03:53:21;;;;;;;12.30;5.92;;;;;;;16.08;39.40;99453.63;1753965;82;21185;-55
2021/05/10 03:55:51;;;;;;;9.55;5.37;;;;;;;16.34;38.55;99457.16;1754197;82;21205;-56
2021/05/10 03:58:20;;;;;;;13.08;5.70;;;;;;;16.46;37.91;99454.02;1754160;82;21621;-55
2021/05/10 04:00:49;;;;;;;10.72;5.75;;;;;;;16.54;37.50;99453.38;1753963;82;21312;-55
2021/05/10 04:03:21;;;;;;;13.55;5.67;;;;;;;16.56;37.27;99445.95;1753963;82;21177;-56
2021/05/10 04:13:35;;;;;;;10.23;5.55;;;;;;;17.86;36.21;99442.73;1754167;82;21146;-55
2021/05/10 04:14:03;;;;;;;14.45;5.90;;;;;;;18.19;35.16;99447.29;1750675;82;21150;-53
2021/05/10 04:16:32;;;;;;;12.78;5.92;;;;;;;18.28;34.33;99445.81;1754103;82;21331;-56
2021/05/10 04:19:03;;;;;;;12.65;5.67;;;;;;;18.17;34.48;99449.90;1754094;82;21157;-55
2021/05/10 04:21:32;;;;;;;10.82;5.85;;;;;;;18.09;34.44;99448.98;1754004;82;21141;-55
2021/05/10 04:24:03;;;;;;;13.88;5.72;;;;;;;17.97;34.74;99451.72;1754346;82;21581;-55
2021/05/10 04:26:32;;;;;;;16.90;5.97;;;;;;;17.93;34.65;99442.58;1754555;82;21193;-57
2021/05/10 04:29:01;;;;;;;12.82;5.45;;;;;;;17.94;35.11;99449.52;1754316;82;21554;-56
2021/05/10 04:31:32;;;;;;;11.10;5.70;;;;;;;18.18;34.74;99460.35;1754130;82;21364;-55
2021/05/10 04:34:01;;;;;;;12.93;5.45;;;;;;;18.37;34.50;99451.56;1754008;80;21189;-55
2021/05/10 04:36:31;;;;;;;10.10;4.85;;;;;;;18.76;34.29;99452.42;1754393;82;21145;-58
2021/05/10 04:39:01;;;;;;;12.95;5.40;;;;;;;19.18;33.59;99455.89;1754446;82;21601;-56
2021/05/10 04:41:31;;;;;;;13.45;5.20;;;;;;;19.53;33.40;99456.01;1754021;82;21130;-56
2021/05/10 04:44:03;;;;;;;8.90;4.83;;;;;;;19.94;33.18;99455.89;1754390;82;21162;-55
2021/05/10 04:46:32;;;;;;;10.48;5.15;;;;;;;20.37;32.72;99458.93;1754357;82;21178;-55
2021/05/10 04:49:02;;;;;;;10.43;4.40;;;;;;;20.81;32.12;99463.23;1754262;82;21169;-54
2021/05/10 04:51:32;;;;;;;6.22;4.25;;;;;;;21.15;31.49;99469.02;1754392;82;21122;-56
2021/05/10 04:54:02;;;;;;;8.80;4.42;;;;;;;21.48;31.13;99463.27;1754321;82;21586;-56
2021/05/10 04:56:31;;;;;;;7.72;4.50;;;;;;;21.81;30.28;99464.42;1754300;82;21316;-56
2021/05/10 04:59:00;;;;;;;10.60;4.83;;;;;;;22.04;30.12;99471.95;1754487;82;21649;-57
2021/05/10 05:01:30;;;;;;;6.17;4.00;;;;;;;22.26;29.87;99470.38;1754310;82;21149;-55
2021/05/10 05:04:00;;;;;;;5.75;4.37;;;;;;;22.39;29.49;99468.48;1754486;82;21174;-54
2021/05/10 05:06:29;;;;;;;8.45;4.03;;;;;;;22.62;29.27;99473.83;1754023;82;21312;-54
2021/05/10 05:08:59;;;;;;;7.95;4.28;;;;;;;22.75;29.07;99473.79;1754290;82;21174;-55
2021/05/10 05:11:28;;;;;;;7.75;4.05;;;;;;;22.95;28.82;99484.53;1754000;82;21205;-56
2021/05/10 05:13:58;;;;;;;6.28;3.85;;;;;;;22.98;28.34;99479.13;1754264;82;21178;-55
2021/05/10 05:16:27;;;;;;;5.15;3.70;;;;;;;23.15;28.56;99486.88;1754429;82;21174;-57
2021/05/10 05:18:57;;;;;;;7.47;3.70;;;;;;;23.40;27.95;99488.13;1754025;82;21320;-57
2021/05/10 05:21:27;;;;;;;10.57;4.10;;;;;;;23.71;27.66;99486.09;1754288;82;21177;-56
2021/05/10 05:23:56;;;;;;;9.03;4.00;;;;;;;23.98;27.39;99484.84;1754290;82;21585;-56
2021/05/10 05:26:25;;;;;;;8.25;4.03;;;;;;;24.23;26.97;99490.02;1754197;82;21679;-55
2021/05/10 05:28:55;;;;;;;7.80;4.55;;;;;;;24.38;26.82;99487.78;1753969;82;21205;-57
2021/05/10 05:31:24;;;;;;;8.85;3.87;;;;;;;24.60;26.35;99497.55;1754327;82;21190;-56
2021/05/10 05:33:53;;;;;;;7.15;4.00;;;;;;;24.75;26.22;99490.38;1754152;80;21217;-54
2021/05/10 05:36:25;;;;;;;7.62;3.77;;;;;;;24.93;25.56;99490.19;1752904;82;21300;-56
2021/05/10 05:38:54;;;;;;;5.35;3.30;;;;;;;25.02;24.85;99494.67;1754252;82;21170;-57
2021/05/10 05:41:23;;;;;;;6.37;3.80;;;;;;;25.07;24.92;99492.50;1754534;82;21161;-55
2021/05/10 05:43:53;;;;;;;5.53;3.08;;;;;;;25.33;24.57;99491.63;1754330;82;21169;-56
2021/05/10 05:46:28;;;;;;;6.13;3.30;;;;;;;25.53;24.03;99493.27;1754207;82;21169;-55
2021/05/10 05:48:58;;;;;;;6.20;3.33;;;;;;;25.62;23.67;99501.75;1754107;82;21609;-57
2021/05/10 05:51:28;;;;;;;3.40;2.95;;;;;;;25.72;23.46;99503.52;1754328;82;21585;-55
2021/05/10 05:53:57;;;;;;;6.10;3.20;;;;;;;25.76;23.36;99496.48;1753973;82;21312;-55
2021/05/10 05:56:27;;;;;;;8.03;3.30;;;;;;;25.58;23.25;99506.70;1754068;82;21161;-56
2021/05/10 05:58:56;;;;;;;5.67;3.90;;;;;;;25.48;23.54;99504.13;1754374;82;21553;-55
2021/05/10 06:01:26;;;;;;;6.35;3.47;;;;;;;25.57;23.75;99512.62;1754222;82;21201;-57
2021/05/10 06:03:56;;;;;;;7.37;3.27;;;;;;;25.68;23.83;99510.03;1754061;82;21140;-56
2021/05/10 06:06:25;;;;;;;5.58;3.30;;;;;;;25.85;23.53;99511.45;1754388;82;21237;-57
2021/05/10 06:08:57;;;;;;;3.98;2.85;;;;;;;25.82;23.28;99508.81;1754238;82;21669;-56
2021/05/10 06:11:26;;;;;;;4.97;2.95;;;;;;;25.72;23.15;99504.87;1753916;82;21351;-56
2021/05/10 06:13:56;;;;;;;4.43;2.90;;;;;;;25.55;23.49;99512.12;1754190;82;21170;-54
2021/05/10 06:16:32;;;;;;;5.77;2.90;;;;;;;25.40;23.40;99508.26;1754400;82;22364;-58
2021/05/10 06:19:01;;;;;;;4.60;3.02;;;;;;;25.26;23.45;99511.42;1754069;82;21727;-54
2021/05/10 06:21:31;;;;;;;6.45;3.45;;;;;;;25.05;23.84;99510.81;1754311;82;21133;-56
2021/05/10 06:24:00;;;;;;;4.67;3.27;;;;;;;25.06;23.86;99513.27;1754257;82;21197;-55
2021/05/10 06:26:31;;;;;;;3.15;2.50;;;;;;;25.15;23.96;99512.08;1754071;82;21916;-57
2021/05/10 06:29:01;;;;;;;5.92;2.80;;;;;;;25.20;24.03;99520.12;1754360;82;21601;-56
2021/05/10 06:31:30;;;;;;;7.62;3.00;;;;;;;25.20;24.03;99514.72;1754076;82;21312;-56
2021/05/10 06:34:02;;;;;;;5.45;2.70;;;;;;;25.21;23.85;99512.83;1754325;80;21157;-55
2021/05/10 06:36:31;;;;;;;7.42;3.20;;;;;;;25.18;23.66;99515.56;1754225;82;21126;-56
2021/05/10 06:39:01;;;;;;;4.92;2.72;;;;;;;25.18;23.59;99512.06;1754317;82;21190;-57
2021/05/10 06:41:30;;;;;;;4.40;3.08;;;;;;;24.98;23.62;99514.41;1754368;82;21241;-56
2021/05/10 06:44:00;;;;;;;8.55;3.25;;;;;;;24.74;23.83;99511.15;1754538;82;21629;-57
2021/05/10 06:46:32;;;;;;;6.03;2.90;;;;;;;24.84;24.33;99515.09;1754421;82;21594;-56
2021/05/10 06:49:02;;;;;;;8.85;3.00;;;;;;;25.08;23.86;99511.63;1754143;82;21173;-55
2021/05/10 06:51:31;;;;;;;7.22;2.90;;;;;;;25.09;23.62;99514.58;1754066;82;21208;-56
2021/05/10 06:54:01;;;;;;;3.75;2.72;;;;;;;25.11;23.92;99513.73;1754236;82;21170;-58
2021/05/10 06:56:30;;;;;;;4.42;2.95;;;;;;;25.30;23.77;99507.86;1754140;82;21221;-56
2021/05/10 06:59:00;;;;;;;6.75;3.00;;;;;;;25.32;23.25;99502.97;1754315;82;21174;-57
2021/05/10 07:01:30;;;;;;;4.20;2.75;;;;;;;25.31;23.36;99512.70;1754214;82;21157;-55
2021/05/10 07:03:59;;;;;;;8.73;2.85;;;;;;;25.42;23.37;99512.29;1754202;82;21194;-56
2021/05/10 07:06:29;;;;;;;6.40;2.70;;;;;;;25.52;23.14;99503.78;1754351;82;21170;-57
2021/05/10 07:08:58;;;;;;;5.93;2.90;;;;;;;25.40;22.76;99502.34;1754316;82;21181;-56
2021/05/10 07:11:28;;;;;;;3.47;2.70;;;;;;;25.23;23.30;99509.28;1754183;82;21169;-55
2021/05/10 07:13:57;;;;;;;2.67;2.17;;;;;;;25.16;23.34;99502.34;1754068;82;21560;-56
2021/05/10 07:16:27;;;;;;;;;;;;;;;25.07;23.04;99510.03;1756484;82;21185;-57
2021/05/10 07:18:56;;;;;;;5.47;2.60;;;;;;;24.86;22.83;99500.77;1754209;82;20134;-56
2021/05/10 07:21:26;;;;;;;7.60;2.55;;;;;;;24.59;23.07;99504.00;1754263;82;21217;-58
2021/05/10 07:23:56;;;;;;;4.70;2.60;;;;;;;24.37;23.20;99507.70;1754194;82;21185;-57
2021/05/10 07:26:25;;;;;;;5.70;2.87;;;;;;;24.19;23.67;99509.17;1753980;82;21221;-57
2021/05/10 07:28:55;;;;;;;7.15;2.77;;;;;;;23.99;24.13;99508.79;1754404;82;21201;-57
2021/05/10 07:31:25;;;;;;;3.08;2.50;;;;;;;23.78;24.38;99508.11;1754005;82;21186;-57
2021/05/10 07:33:54;;;;;;;4.72;2.87;;;;;;;23.44;24.47;99508.53;1754258;80;21202;-57
2021/05/10 07:36:24;;;;;;;6.25;2.52;;;;;;;23.02;24.44;99506.55;1754074;82;21217;-56
2021/05/10 07:38:53;;;;;;;4.30;3.00;;;;;;;22.48;24.92;99496.94;1754305;82;21137;-58
2021/05/10 07:41:22;;;;;;;6.90;2.80;;;;;;;22.18;25.50;99497.75;1754429;82;21228;-59
2021/05/10 07:43:51;;;;;;;3.75;2.45;;;;;;;21.90;25.64;99489.11;1754130;82;21173;-57
2021/05/10 07:46:21;;;;;;;3.15;2.30;;;;;;;21.56;26.18;99497.34;1754054;82;21169;-57
2021/05/10 07:48:51;;;;;;;4.92;2.45;;;;;;;21.27;26.10;99500.97;1753982;82;21146;-56
2021/05/10 07:51:20;;;;;;;3.65;2.40;;;;;;;21.05;26.42;99503.31;1754181;82;21173;-55
2021/05/10 07:53:49;;;;;;;5.12;2.62;;;;;;;20.87;26.87;99505.06;1754273;82;21166;-56
2021/05/10 07:56:19;;;;;;;5.75;2.62;;;;;;;20.59;27.00;99502.23;1753987;82;21174;-56
2021/05/10 07:58:49;;;;;;;5.50;2.52;;;;;;;20.33;27.17;99503.87;1753919;82;21190;-54
2021/05/10 08:01:18;;;;;;;4.85;2.45;;;;;;;20.14;26.98;99502.11;1753987;82;21323;-53
2021/05/10 08:03:48;;;;;;;6.25;2.80;;;;;;;19.94;27.69;99510.75;1754269;82;21142;-55
2021/05/10 08:06:18;;;;;;;4.10;2.40;;;;;;;19.79;27.36;99506.60;1754001;82;21137;-56
2021/05/10 08:08:47;;;;;;;8.77;2.73;;;;;;;19.52;28.19;99512.69;1754325;82;21134;-56
2021/05/10 08:11:18;;;;;;;4.80;2.83;;;;;;;19.45;28.95;99509.41;1754086;82;21136;-57
2021/05/10 08:13:48;;;;;;;3.10;2.80;;;;;;;19.42;28.88;99507.22;1754335;82;21577;-57
2021/05/10 08:16:18;;;;;;;4.90;2.52;;;;;;;19.35;27.69;99506.61;1754037;82;21166;-56
2021/05/10 08:18:47;;;;;;;3.98;2.67;;;;;;;19.13;28.72;99509.27;1751578;82;21173;-55
2021/05/10 08:21:17;;;;;;;5.35;2.50;;;;;;;19.03;28.84;99501.91;1754055;82;21137;-56
2021/05/10 08:23:46;;;;;;;5.92;2.75;;;;;;;18.94;29.47;99509.29;1749913;82;21177;-57
2021/05/10 08:26:16;;;;;;;5.35;2.77;;;;;;;18.92;29.47;99508.17;1748724;82;21327;-54
2021/05/10 08:28:45;;;;;;;6.20;2.62;;;;;;;18.98;29.58;99507.72;1748653;82;21594;-55
2021/05/10 08:31:14;;;;;;;6.00;3.30;;;;;;;19.02;29.91;99503.51;1748415;82;21173;-55
2021/05/10 08:33:45;;;;;;;3.65;2.92;;;;;;;19.01;28.70;99506.71;1748339;81;21177;-56
2021/05/10 08:36:17;;;;;;;6.00;2.67;;;;;;;18.86;28.46;99503.02;1748485;82;21170;-56
2021/05/10 08:38:48;;;;;;;5.53;2.72;;;;;;;18.78;29.07;99505.05;1748474;82;21186;-55
2021/05/10 08:41:18;;;;;;;5.05;2.67;;;;;;;18.75;29.70;99504.23;1748803;82;21130;-56
2021/05/10 08:43:47;;;;;;;5.05;2.70;;;;;;;18.77;29.45;99498.10;1748449;82;21319;-55
2021/05/10 08:46:17;;;;;;;4.15;2.90;;;;;;;18.78;29.03;99497.05;1748367;82;21173;-56
2021/05/10 08:48:46;;;;;;;3.42;2.47;;;;;;;18.67;28.89;99503.29;1748619;82;21190;-55
2021/05/10 08:51:17;;;;;;;5.42;3.02;;;;;;;18.62;30.06;99505.05;1748817;82;21110;-54
2021/05/10 08:53:46;;;;;;;6.45;3.15;;;;;;;18.71;30.27;99494.28;1748710;82;21756;-56
2021/05/10 08:56:16;;;;;;;7.03;3.30;;;;;;;18.79;29.70;99493.31;1748591;82;21578;-56
2021/05/10 08:58:46;;;;;;;9.53;3.40;;;;;;;18.87;30.00;99487.27;1748326;82;21205;-55
2021/05/10 09:01:16;;;;;;;4.10;2.90;;;;;;;18.99;29.87;99485.31;1748784;82;21158;-58
2021/05/10 09:03:46;;;;;;;4.87;2.77;;;;;;;19.02;29.82;99493.62;1748378;82;21203;-58
2021/05/10 09:06:30;;;;;;;7.95;3.02;;;;;;;19.04;29.46;99490.73;1748486;82;21170;-57
2021/05/10 09:09:08;;;;;;;7.75;2.80;;;;;;;19.03;29.36;99494.44;1748331;82;21154;-54
2021/05/10 09:11:55;;;;;;;5.08;2.95;;;;;;;19.05;29.84;99489.14;1748634;82;21126;-57
2021/05/10 09:14:32;;;;;;;5.00;3.00;;;;;;;19.09;29.95;99486.77;1748458;82;21154;-57
2021/05/10 09:17:03;;;;;;;6.37;2.80;;;;;;;19.14;29.12;99478.00;1748377;82;21205;-56
2021/05/10 09:19:56;;;;;;;8.13;2.83;;;;;;;19.17;29.42;99474.85;1748675;82;21217;-55
2021/05/10 09:22:21;;;;;;;3.77;2.92;;;;;;;19.25;30.08;99467.72;1747948;82;21155;-55
2021/05/10 09:24:52;;;;;;;8.35;2.87;;;;;;;19.34;29.79;99475.59;1751439;82;21316;-57
2021/05/10 09:27:26;;;;;;;7.90;3.00;;;;;;;19.41;29.56;99470.05;1754125;82;21288;-57
2021/05/10 09:30:23;;;;;;;8.45;3.00;;;;;;;19.46;29.59;99469.58;1754225;82;21142;-60
2021/05/10 09:32:54;;;;;;;6.97;2.70;;;;;;;19.52;29.58;99463.76;1754010;82;21173;-58
2021/05/10 09:35:29;;;;;;;4.72;2.70;;;;;;;19.52;29.09;99466.43;1754053;80;21195;-57
2021/05/10 09:38:06;;;;;;;4.80;2.80;;;;;;;19.51;29.42;99460.28;1753895;82;21162;-56
2021/05/10 09:40:48;;;;;;;5.05;2.80;;;;;;;19.51;28.10;99456.27;1753902;82;21162;-55
2021/05/10 09:43:21;;;;;;;3.95;2.58;;;;;;;19.36;27.81;99456.89;1753922;82;21158;-57
2021/05/10 09:45:57;;;;;;;4.22;2.90;;;;;;;19.21;28.55;99461.25;1753315;82;21609;-55
2021/05/10 09:48:30;;;;;;;6.87;2.83;;;;;;;19.23;28.14;99449.27;1753808;82;21197;-56
2021/05/10 09:51:03;;;;;;;5.62;2.60;;;;;;;19.28;28.65;99447.19;1753939;82;21166;-56
2021/05/10 09:53:53;;;;;;;4.50;2.60;;;;;;;19.39;28.95;99449.45;1753785;82;21177;-56
2021/05/10 09:56:28;;;;;;;5.53;3.05;;;;;;;19.44;27.66;99452.98;1754163;82;21149;-56
2021/05/10 09:59:00;;;;;;;5.08;2.92;;;;;;;19.32;28.33;99446.95;1753956;82;21181;-55
2021/05/10 10:01:45;;;;;;;5.00;2.60;;;;;;;19.29;28.31;99444.27;1753965;82;21165;-55
2021/05/10 10:04:19;;;;;;;6.62;2.77;;;;;;;19.35;28.82;99435.23;1754088;82;21122;-57
2021/05/10 10:06:48;;;;;;;4.65;2.62;;;;;;;19.40;28.28;99436.36;1754254;82;21511;-57
2021/05/10 10:09:18;;;;;;;8.75;2.90;;;;;;;19.40;28.46;99432.35;1754304;82;21154;-57
2021/05/10 10:11:48;;;;;;;3.77;2.50;;;;;;;19.42;28.66;99423.54;1754442;82;21172;-55
2021/05/10 10:14:18;;;;;;;6.35;2.90;;;;;;;19.47;28.30;99431.61;1753934;82;21185;-56
2021/05/10 10:16:49;;;;;;;6.92;2.67;;;;;;;19.52;28.30;99427.66;1750345;82;21158;-54
2021/05/10 10:19:20;;;;;;;7.55;3.15;;;;;;;19.51;27.63;99421.51;1754034;82;21173;-55
2021/05/10 10:21:49;;;;;;;6.22;2.55;;;;;;;19.52;28.34;99415.09;1754032;82;21162;-56
2021/05/10 10:24:19;;;;;;;6.17;2.60;;;;;;;19.58;27.55;99419.97;1749705;82;21142;-54
2021/05/10 10:26:50;;;;;;;11.90;3.20;;;;;;;19.58;28.06;99415.95;1745634;82;21321;-55
2021/05/10 10:29:19;;;;;;;3.87;2.80;;;;;;;19.63;28.59;99409.35;1748378;82;21162;-55
2021/05/10 10:31:49;;;;;;;4.78;2.62;;;;;;;19.67;27.87;99410.47;1748369;82;21177;-57
2021/05/10 10:34:33;;;;;;;7.25;2.95;;;;;;;19.69;27.94;99405.66;1748789;81;21158;-57
2021/05/10 10:37:03;;;;;;;6.47;2.65;;;;;;;19.75;28.57;99408.66;1748707;82;21570;-56
2021/05/10 10:39:33;;;;;;;4.83;2.92;;;;;;;19.86;28.38;99396.18;1748886;82;21681;-57
2021/05/10 10:42:06;;;;;;;3.90;2.50;;;;;;;19.95;27.81;99397.84;1748683;82;21134;-54
2021/05/10 10:44:49;;;;;;;3.83;2.58;;;;;;;19.92;27.12;99393.02;1748337;82;21154;-57
2021/05/10 10:47:52;;;;;;;5.25;2.60;;;;;;;19.88;27.62;99390.84;1748618;82;21166;-55
2021/05/10 10:50:21;;;;;;;;;;;;;;;19.96;27.09;99387.44;1751262;82;21551;-56
2021/05/10 10:53:02;;;;;;;3.85;2.83;;;;;;;19.95;26.70;99381.78;1748927;82;20409;-57
2021/05/10 10:55:40;;;;;;;5.40;2.72;;;;;;;19.89;27.57;99379.59;1748709;82;21268;-55
2021/05/10 10:58:20;;;;;;;4.47;2.58;;;;;;;19.93;28.44;99375.36;1748323;82;21162;-57
2021/05/10 11:01:19;;;;;;;3.62;2.67;;;;;;;20.05;27.45;99367.95;1748304;82;21158;-57
2021/05/10 11:03:42;;;;;;;5.75;2.80;;;;;;;20.05;27.87;99373.30;1747884;82;21110;-56
2021/05/10 11:06:12;;;;;;;6.65;3.08;;;;;;;19.99;26.02;99370.31;1748606;82;21173;-57
2021/05/10 11:08:53;;;;;;;4.05;2.72;;;;;;;19.78;26.37;99371.22;1748739;82;21154;-55
2021/05/10 11:11:34;;;;;;;5.25;2.65;;;;;;;19.67;27.28;99365.50;1748593;82;21135;-56
2021/05/10 11:14:04;;;;;;;6.87;3.15;;;;;;;19.72;27.91;99356.19;1748684;82;21229;-55
2021/05/10 11:16:46;;;;;;;;;;;;;;;19.85;28.19;99357.92;1751241;82;21709;-55
2021/05/10 11:19:36;;;;;;;3.98;2.60;;;;;;;19.95;27.38;99353.69;1748779;82;20221;-58
2021/05/10 11:22:35;;;;;;;4.05;2.80;;;;;;;19.92;27.51;99347.53;1748463;82;21185;-55
2021/05/10 11:25:38;;;;;;;4.17;2.67;;;;;;;19.84;27.86;99352.30;1753520;82;21197;-54
2021/05/10 11:28:28;;;;;;;6.28;2.87;;;;;;;19.84;27.98;99348.80;1749151;82;21185;-58
2021/05/10 11:31:02;;;;;;;5.83;2.83;;;;;;;19.98;28.25;99346.50;1746885;81;21625;-57
2021/05/10 11:33:58;;;;;;;3.87;2.70;;;;;;;20.09;27.45;99344.17;1754027;80;21201;-57
2021/05/10 11:36:34;;;;;;;7.00;2.80;;;;;;;20.11;26.95;99332.13;1754032;82;21181;-59
2021/05/10 11:39:08;;;;;;;3.83;2.42;;;;;;;20.16;27.21;99330.83;1754137;82;21189;-55
2021/05/10 11:41:43;;;;;;;5.12;2.85;;;;;;;20.20;27.53;99332.47;1754343;82;21162;-56
2021/05/10 11:44:24;;;;;;;3.70;2.90;;;;;;;20.14;26.74;99322.80;1754374;82;21304;-56
2021/05/10 11:46:59;;;;;;;7.33;3.42;;;;;;;20.06;27.53;99328.61;1754065;82;21169;-56
2021/05/10 11:49:35;;;;;;;7.20;2.83;;;;;;;20.16;27.66;99323.33;1754243;82;21646;-57
2021/05/10 11:52:18;;;;;;;6.20;2.52;;;;;;;20.31;27.33;99319.41;1754212;82;21154;-57
2021/05/10 11:54:56;;;;;;;6.25;2.70;;;;;;;20.40;27.33;99312.48;1754361;82;21165;-56
2021/05/10 11:57:28;;;;;;;6.12;2.87;;;;;;;20.46;28.09;99314.67;1754107;82;21174;-57
2021/05/10 12:00:12;;;;;;;6.08;2.65;;;;;;;20.44;26.73;99312.77;1754065;82;21130;-58